sensor_id;sensor_type;location;lat;lon;timestamp;temperature;humidity
19007;DHT22;9636;47.382;8.480;2023-04-19T00:01:15;16.30;99.90
19007;DHT22;9636;47.382;8.480;2023-04-19T00:03:42;16.30;99.90
19007;DHT22;9636;47.382;8.480;2023-04-19T00:06:09;16.20;99.90
19007;DHT22;9636;47.382;8.480;2023-04-19T00:08:39;16.20;99.90
19007;DHT22;9636;47.382;8.480;2023-04-19T00:11:06;16.20;99.90
19007;DHT22;9636;47.382;8.480;2023-04-19T00:13:33;16.20;99.90
19007;DHT22;9636;47.382;8.480;2023-04-19T00:16:00;16.20;99.90
19007;DHT22;9636;47.382;8.480;2023-04-19T00:18:28;16.20;99.90
19007;DHT22;9636;47.382;8.480;2023-04-19T00:20:55;16.20;99.90
19007;DHT22;9636;47.382;8.480;2023-04-19T00:23:22;16.20;99.90
19007;DHT22;9636;47.382;8.480;2023-04-19T00:25:50;16.20;99.90
19007;DHT22;9636;47.382;8.480;2023-04-19T00:28:16;16.10;99.90
19007;DHT22;9636;47.382;8.480;2023-04-19T00:30:43;16.10;99.90
19007;DHT22;9636;47.382;8.480;2023-04-19T00:33:10;16.10;99.90
19007;DHT22;9636;47.382;8.480;2023-04-19T00:35:39;16.10;99.90
19007;DHT22;9636;47.382;8.480;2023-04-19T00:38:06;16.10;99.90
19007;DHT22;9636;47.382;8.480;2023-04-19T00:40:34;16.10;99.90
19007;DHT22;9636;47.382;8.480;2023-04-19T00:43:01;16.10;99.90
19007;DHT22;9636;47.382;8.480;2023-04-19T00:45:28;16.10;99.90
19007;DHT22;9636;47.382;8.480;2023-04-19T00:47:55;16.00;99.90
19007;DHT22;9636;47.382;8.480;2023-04-19T00:50:21;16.00;99.90
19007;DHT22;9636;47.382;8.480;2023-04-19T00:52:51;16.00;99.90
19007;DHT22;9636;47.382;8.480;2023-04-19T00:55:19;16.00;99.90
19007;DHT22;9636;47.382;8.480;2023-04-19T00:57:47;16.00;99.90
19007;DHT22;9636;47.382;8.480;2023-04-19T01:00:16;15.90;99.90
19007;DHT22;9636;47.382;8.480;2023-04-19T01:02:44;16.00;99.90
19007;DHT22;9636;47.382;8.480;2023-04-19T01:05:11;16.00;99.90
19007;DHT22;9636;47.382;8.480;2023-04-19T01:07:37;16.00;99.90
19007;DHT22;9636;47.382;8.480;2023-04-19T01:10:06;15.90;99.90
19007;DHT22;9636;47.382;8.480;2023-04-19T01:12:33;15.90;99.90
19007;DHT22;9636;47.382;8.480;2023-04-19T01:15:01;15.90;99.90
19007;DHT22;9636;47.382;8.480;2023-04-19T01:17:28;15.90;99.90
19007;DHT22;9636;47.382;8.480;2023-04-19T01:20:00;15.90;99.90
19007;DHT22;9636;47.382;8.480;2023-04-19T01:22:29;15.90;99.90
19007;DHT22;9636;47.382;8.480;2023-04-19T01:24:56;15.90;99.90
19007;DHT22;9636;47.382;8.480;2023-04-19T01:27:23;15.90;99.90
19007;DHT22;9636;47.382;8.480;2023-04-19T01:29:50;15.80;99.90
19007;DHT22;9636;47.382;8.480;2023-04-19T01:32:17;15.80;99.90
19007;DHT22;9636;47.382;8.480;2023-04-19T01:34:44;15.80;99.90
19007;DHT22;9636;47.382;8.480;2023-04-19T01:37:11;15.80;99.90
19007;DHT22;9636;47.382;8.480;2023-04-19T01:39:39;15.80;99.90
19007;DHT22;9636;47.382;8.480;2023-04-19T01:42:06;15.80;99.90
19007;DHT22;9636;47.382;8.480;2023-04-19T01:44:32;15.70;99.90
19007;DHT22;9636;47.382;8.480;2023-04-19T01:46:59;15.70;99.90
19007;DHT22;9636;47.382;8.480;2023-04-19T01:49:26;15.70;99.90
19007;DHT22;9636;47.382;8.480;2023-04-19T01:51:53;15.70;99.90
19007;DHT22;9636;47.382;8.480;2023-04-19T01:54:19;15.70;99.90
19007;DHT22;9636;47.382;8.480;2023-04-19T01:56:48;15.70;99.90
19007;DHT22;9636;47.382;8.480;2023-04-19T01:59:14;15.70;99.90
19007;DHT22;9636;47.382;8.480;2023-04-19T02:01:41;15.70;99.90
19007;DHT22;9636;47.382;8.480;2023-04-19T02:04:08;15.70;99.90
19007;DHT22;9636;47.382;8.480;2023-04-19T02:06:35;15.60;99.90
19007;DHT22;9636;47.382;8.480;2023-04-19T02:09:02;15.60;99.90
19007;DHT22;9636;47.382;8.480;2023-04-19T02:11:29;15.60;99.90
19007;DHT22;9636;47.382;8.480;2023-04-19T02:13:57;15.60;99.90
19007;DHT22;9636;47.382;8.480;2023-04-19T02:16:24;15.60;99.90
19007;DHT22;9636;47.382;8.480;2023-04-19T02:18:50;15.60;99.90
19007;DHT22;9636;47.382;8.480;2023-04-19T02:21:17;15.60;99.90
19007;DHT22;9636;47.382;8.480;2023-04-19T02:23:44;15.60;99.90
19007;DHT22;9636;47.382;8.480;2023-04-19T02:26:11;15.60;99.90
19007;DHT22;9636;47.382;8.480;2023-04-19T02:28:38;15.60;99.90
19007;DHT22;9636;47.382;8.480;2023-04-19T02:31:06;15.50;99.90
19007;DHT22;9636;47.382;8.480;2023-04-19T02:33:33;15.60;99.90
19007;DHT22;9636;47.382;8.480;2023-04-19T02:36:00;15.50;99.90
19007;DHT22;9636;47.382;8.480;2023-04-19T02:38:27;15.50;99.90
19007;DHT22;9636;47.382;8.480;2023-04-19T02:40:54;15.50;99.90
19007;DHT22;9636;47.382;8.480;2023-04-19T02:43:21;15.50;99.90
19007;DHT22;9636;47.382;8.480;2023-04-19T02:45:47;15.50;99.90
19007;DHT22;9636;47.382;8.480;2023-04-19T02:48:16;15.50;99.90
19007;DHT22;9636;47.382;8.480;2023-04-19T02:50:43;15.50;99.90
19007;DHT22;9636;47.382;8.480;2023-04-19T02:53:09;15.50;99.90
19007;DHT22;9636;47.382;8.480;2023-04-19T02:55:36;15.50;99.90
19007;DHT22;9636;47.382;8.480;2023-04-19T02:58:03;15.40;99.90
19007;DHT22;9636;47.382;8.480;2023-04-19T03:00:30;15.40;99.90
19007;DHT22;9636;47.382;8.480;2023-04-19T03:02:57;15.40;99.90
19007;DHT22;9636;47.382;8.480;2023-04-19T03:05:25;15.40;99.90
19007;DHT22;9636;47.382;8.480;2023-04-19T03:07:52;15.40;99.90
19007;DHT22;9636;47.382;8.480;2023-04-19T03:10:19;15.40;99.90
19007;DHT22;9636;47.382;8.480;2023-04-19T03:12:46;15.40;99.90
19007;DHT22;9636;47.382;8.480;2023-04-19T03:15:12;15.40;99.90
19007;DHT22;9636;47.382;8.480;2023-04-19T03:17:39;15.30;99.90
19007;DHT22;9636;47.382;8.480;2023-04-19T03:20:07;15.40;99.90
19007;DHT22;9636;47.382;8.480;2023-04-19T03:22:37;15.30;99.90
19007;DHT22;9636;47.382;8.480;2023-04-19T03:25:05;15.30;99.90
19007;DHT22;9636;47.382;8.480;2023-04-19T03:27:33;15.30;99.90
19007;DHT22;9636;47.382;8.480;2023-04-19T03:30:00;15.30;99.90
19007;DHT22;9636;47.382;8.480;2023-04-19T03:32:27;15.30;99.90
19007;DHT22;9636;47.382;8.480;2023-04-19T03:34:53;15.30;99.90
19007;DHT22;9636;47.382;8.480;2023-04-19T03:37:20;15.20;99.90
19007;DHT22;9636;47.382;8.480;2023-04-19T03:39:48;15.20;99.90
19007;DHT22;9636;47.382;8.480;2023-04-19T03:42:15;15.30;99.90
19007;DHT22;9636;47.382;8.480;2023-04-19T03:44:42;15.20;99.90
19007;DHT22;9636;47.382;8.480;2023-04-19T03:47:09;15.20;99.90
19007;DHT22;9636;47.382;8.480;2023-04-19T03:49:35;15.20;99.90
19007;DHT22;9636;47.382;8.480;2023-04-19T03:52:02;15.20;99.90
19007;DHT22;9636;47.382;8.480;2023-04-19T03:54:29;15.20;99.90
19007;DHT22;9636;47.382;8.480;2023-04-19T03:56:57;15.20;99.90
19007;DHT22;9636;47.382;8.480;2023-04-19T03:59:25;15.20;99.90
19007;DHT22;9636;47.382;8.480;2023-04-19T04:01:51;15.20;99.90
19007;DHT22;9636;47.382;8.480;2023-04-19T04:04:18;15.20;99.90
19007;DHT22;9636;47.382;8.480;2023-04-19T04:06:45;15.20;99.90
19007;DHT22;9636;47.382;8.480;2023-04-19T04:09:12;15.10;99.90
19007;DHT22;9636;47.382;8.480;2023-04-19T04:11:38;15.10;99.90
19007;DHT22;9636;47.382;8.480;2023-04-19T04:14:07;15.10;99.90
19007;DHT22;9636;47.382;8.480;2023-04-19T04:16:33;15.10;99.90
19007;DHT22;9636;47.382;8.480;2023-04-19T04:19:00;15.10;99.90
19007;DHT22;9636;47.382;8.480;2023-04-19T04:21:27;15.10;99.90
19007;DHT22;9636;47.382;8.480;2023-04-19T04:23:54;15.10;99.90
19007;DHT22;9636;47.382;8.480;2023-04-19T04:26:21;15.10;99.90
19007;DHT22;9636;47.382;8.480;2023-04-19T04:28:49;15.10;99.90
19007;DHT22;9636;47.382;8.480;2023-04-19T04:31:17;15.10;99.90
19007;DHT22;9636;47.382;8.480;2023-04-19T04:33:45;15.00;99.90
19007;DHT22;9636;47.382;8.480;2023-04-19T04:36:12;15.00;99.90
19007;DHT22;9636;47.382;8.480;2023-04-19T04:38:39;15.00;99.90
19007;DHT22;9636;47.382;8.480;2023-04-19T04:41:06;15.00;99.90
19007;DHT22;9636;47.382;8.480;2023-04-19T04:43:33;15.00;99.90
19007;DHT22;9636;47.382;8.480;2023-04-19T04:46:00;15.00;99.90
19007;DHT22;9636;47.382;8.480;2023-04-19T04:48:28;15.00;99.90
19007;DHT22;9636;47.382;8.480;2023-04-19T04:50:55;15.00;99.90
19007;DHT22;9636;47.382;8.480;2023-04-19T04:53:24;15.00;99.90
19007;DHT22;9636;47.382;8.480;2023-04-19T04:55:52;15.00;99.90
19007;DHT22;9636;47.382;8.480;2023-04-19T04:58:19;15.00;99.90
19007;DHT22;9636;47.382;8.480;2023-04-19T05:00:46;15.00;99.90
19007;DHT22;9636;47.382;8.480;2023-04-19T05:03:13;15.00;99.90
19007;DHT22;9636;47.382;8.480;2023-04-19T05:05:42;15.00;99.90
19007;DHT22;9636;47.382;8.480;2023-04-19T05:08:09;15.00;99.90
19007;DHT22;9636;47.382;8.480;2023-04-19T05:10:35;14.90;99.90
19007;DHT22;9636;47.382;8.480;2023-04-19T05:13:02;14.90;99.90
19007;DHT22;9636;47.382;8.480;2023-04-19T05:15:29;14.90;99.90
19007;DHT22;9636;47.382;8.480;2023-04-19T05:17:56;14.90;99.90
19007;DHT22;9636;47.382;8.480;2023-04-19T05:20:23;14.90;99.90
19007;DHT22;9636;47.382;8.480;2023-04-19T05:22:56;14.90;99.90
19007;DHT22;9636;47.382;8.480;2023-04-19T05:25:22;14.90;99.90
19007;DHT22;9636;47.382;8.480;2023-04-19T05:27:49;14.90;99.90
19007;DHT22;9636;47.382;8.480;2023-04-19T05:30:16;14.90;99.90
19007;DHT22;9636;47.382;8.480;2023-04-19T05:32:43;14.90;99.90
19007;DHT22;9636;47.382;8.480;2023-04-19T05:35:10;14.90;99.90
19007;DHT22;9636;47.382;8.480;2023-04-19T05:37:37;14.90;99.90
19007;DHT22;9636;47.382;8.480;2023-04-19T05:40:07;14.90;99.90
19007;DHT22;9636;47.382;8.480;2023-04-19T05:42:35;14.90;99.90
19007;DHT22;9636;47.382;8.480;2023-04-19T05:45:02;14.90;99.90
19007;DHT22;9636;47.382;8.480;2023-04-19T05:47:29;14.90;99.90
19007;DHT22;9636;47.382;8.480;2023-04-19T05:49:56;14.90;99.90
19007;DHT22;9636;47.382;8.480;2023-04-19T05:52:22;14.90;99.90
19007;DHT22;9636;47.382;8.480;2023-04-19T05:54:49;14.90;99.90
19007;DHT22;9636;47.382;8.480;2023-04-19T05:57:17;14.90;99.90
19007;DHT22;9636;47.382;8.480;2023-04-19T05:59:44;14.90;99.90
19007;DHT22;9636;47.382;8.480;2023-04-19T06:02:11;14.90;99.90
19007;DHT22;9636;47.382;8.480;2023-04-19T06:04:38;14.90;99.90
19007;DHT22;9636;47.382;8.480;2023-04-19T06:07:05;14.90;99.90
19007;DHT22;9636;47.382;8.480;2023-04-19T06:09:32;14.90;99.90
19007;DHT22;9636;47.382;8.480;2023-04-19T06:11:59;14.90;99.90
19007;DHT22;9636;47.382;8.480;2023-04-19T06:14:27;14.90;99.90
19007;DHT22;9636;47.382;8.480;2023-04-19T06:16:54;14.90;99.90
19007;DHT22;9636;47.382;8.480;2023-04-19T06:19:21;14.90;99.90
19007;DHT22;9636;47.382;8.480;2023-04-19T06:21:48;14.90;99.90
19007;DHT22;9636;47.382;8.480;2023-04-19T06:24:15;14.90;99.90
19007;DHT22;9636;47.382;8.480;2023-04-19T06:26:42;14.90;99.90
19007;DHT22;9636;47.382;8.480;2023-04-19T06:29:09;14.90;99.90
19007;DHT22;9636;47.382;8.480;2023-04-19T06:31:37;14.90;99.90
19007;DHT22;9636;47.382;8.480;2023-04-19T06:34:03;14.90;99.90
19007;DHT22;9636;47.382;8.480;2023-04-19T06:36:31;15.00;99.90
19007;DHT22;9636;47.382;8.480;2023-04-19T06:38:58;15.00;99.90
19007;DHT22;9636;47.382;8.480;2023-04-19T06:41:25;15.00;99.90
19007;DHT22;9636;47.382;8.480;2023-04-19T06:43:51;15.00;99.90
19007;DHT22;9636;47.382;8.480;2023-04-19T06:46:18;15.10;99.90
19007;DHT22;9636;47.382;8.480;2023-04-19T06:48:46;15.10;99.90
19007;DHT22;9636;47.382;8.480;2023-04-19T06:51:13;15.10;99.90
19007;DHT22;9636;47.382;8.480;2023-04-19T06:53:40;15.10;99.90
19007;DHT22;9636;47.382;8.480;2023-04-19T06:56:09;15.20;99.90
19007;DHT22;9636;47.382;8.480;2023-04-19T06:58:37;15.20;99.90
19007;DHT22;9636;47.382;8.480;2023-04-19T07:01:04;15.20;99.90
19007;DHT22;9636;47.382;8.480;2023-04-19T07:03:31;15.20;99.90
19007;DHT22;9636;47.382;8.480;2023-04-19T07:05:59;15.30;99.90
19007;DHT22;9636;47.382;8.480;2023-04-19T07:08:27;15.30;99.90
19007;DHT22;9636;47.382;8.480;2023-04-19T07:10:54;15.30;99.90
19007;DHT22;9636;47.382;8.480;2023-04-19T07:13:21;15.30;99.90
19007;DHT22;9636;47.382;8.480;2023-04-19T07:15:48;15.40;99.90
19007;DHT22;9636;47.382;8.480;2023-04-19T07:18:14;15.40;99.90
19007;DHT22;9636;47.382;8.480;2023-04-19T07:20:41;15.40;99.90
19007;DHT22;9636;47.382;8.480;2023-04-19T07:23:14;15.50;99.90
19007;DHT22;9636;47.382;8.480;2023-04-19T07:25:41;15.50;99.90
19007;DHT22;9636;47.382;8.480;2023-04-19T07:28:08;15.50;99.90
19007;DHT22;9636;47.382;8.480;2023-04-19T07:30:35;15.50;99.90
19007;DHT22;9636;47.382;8.480;2023-04-19T07:33:02;15.60;99.90
19007;DHT22;9636;47.382;8.480;2023-04-19T07:35:30;15.60;99.90
19007;DHT22;9636;47.382;8.480;2023-04-19T07:37:57;15.60;99.90
19007;DHT22;9636;47.382;8.480;2023-04-19T07:40:25;15.60;99.90
19007;DHT22;9636;47.382;8.480;2023-04-19T07:42:54;15.70;99.90
19007;DHT22;9636;47.382;8.480;2023-04-19T07:45:21;15.70;99.90
19007;DHT22;9636;47.382;8.480;2023-04-19T07:47:48;15.70;99.90
19007;DHT22;9636;47.382;8.480;2023-04-19T07:50:15;15.70;99.90
19007;DHT22;9636;47.382;8.480;2023-04-19T07:52:42;15.80;99.90
19007;DHT22;9636;47.382;8.480;2023-04-19T07:55:09;15.80;99.90
19007;DHT22;9636;47.382;8.480;2023-04-19T07:57:37;15.90;99.90
19007;DHT22;9636;47.382;8.480;2023-04-19T08:00:05;15.90;99.90
19007;DHT22;9636;47.382;8.480;2023-04-19T08:02:34;15.90;99.90
19007;DHT22;9636;47.382;8.480;2023-04-19T08:05:01;16.00;99.90
19007;DHT22;9636;47.382;8.480;2023-04-19T08:07:28;16.00;99.90
19007;DHT22;9636;47.382;8.480;2023-04-19T08:09:55;16.10;99.90
19007;DHT22;9636;47.382;8.480;2023-04-19T08:12:22;16.10;99.90
19007;DHT22;9636;47.382;8.480;2023-04-19T08:14:50;16.10;99.90
19007;DHT22;9636;47.382;8.480;2023-04-19T08:17:17;16.10;99.90
19007;DHT22;9636;47.382;8.480;2023-04-19T08:19:46;16.20;99.90
19007;DHT22;9636;47.382;8.480;2023-04-19T08:22:13;16.20;99.90
19007;DHT22;9636;47.382;8.480;2023-04-19T08:24:40;16.20;99.90
19007;DHT22;9636;47.382;8.480;2023-04-19T08:27:07;16.30;99.90
19007;DHT22;9636;47.382;8.480;2023-04-19T08:29:34;16.30;99.90
19007;DHT22;9636;47.382;8.480;2023-04-19T08:32:03;16.30;99.90
19007;DHT22;9636;47.382;8.480;2023-04-19T08:34:30;16.40;99.90
19007;DHT22;9636;47.382;8.480;2023-04-19T08:36:57;16.40;99.90
19007;DHT22;9636;47.382;8.480;2023-04-19T08:39:23;16.40;99.90
19007;DHT22;9636;47.382;8.480;2023-04-19T08:41:50;16.50;99.90
19007;DHT22;9636;47.382;8.480;2023-04-19T08:44:18;16.50;99.90
19007;DHT22;9636;47.382;8.480;2023-04-19T08:46:46;16.50;99.90
19007;DHT22;9636;47.382;8.480;2023-04-19T08:49:16;16.60;99.90
19007;DHT22;9636;47.382;8.480;2023-04-19T08:51:45;16.60;99.90
19007;DHT22;9636;47.382;8.480;2023-04-19T08:54:13;16.60;99.90
19007;DHT22;9636;47.382;8.480;2023-04-19T08:56:40;16.60;99.90
19007;DHT22;9636;47.382;8.480;2023-04-19T08:59:07;16.60;99.90
19007;DHT22;9636;47.382;8.480;2023-04-19T09:01:34;16.70;99.90
19007;DHT22;9636;47.382;8.480;2023-04-19T09:04:02;16.60;99.90
19007;DHT22;9636;47.382;8.480;2023-04-19T09:06:34;16.70;99.90
19007;DHT22;9636;47.382;8.480;2023-04-19T09:09:13;16.70;99.90
19007;DHT22;9636;47.382;8.480;2023-04-19T09:11:41;16.80;99.90
19007;DHT22;9636;47.382;8.480;2023-04-19T09:14:08;16.80;99.90
19007;DHT22;9636;47.382;8.480;2023-04-19T09:16:35;16.80;99.90
19007;DHT22;9636;47.382;8.480;2023-04-19T09:19:02;16.80;99.90
19007;DHT22;9636;47.382;8.480;2023-04-19T09:21:33;16.90;99.90
19007;DHT22;9636;47.382;8.480;2023-04-19T09:24:00;16.90;99.90
19007;DHT22;9636;47.382;8.480;2023-04-19T09:26:27;16.90;99.90
19007;DHT22;9636;47.382;8.480;2023-04-19T09:28:55;17.00;99.90
19007;DHT22;9636;47.382;8.480;2023-04-19T09:31:23;17.10;99.90
19007;DHT22;9636;47.382;8.480;2023-04-19T09:33:51;17.10;99.90
19007;DHT22;9636;47.382;8.480;2023-04-19T09:36:37;17.20;99.90
19007;DHT22;9636;47.382;8.480;2023-04-19T09:39:04;17.20;99.90
19007;DHT22;9636;47.382;8.480;2023-04-19T09:41:31;17.30;99.90
19007;DHT22;9636;47.382;8.480;2023-04-19T09:44:08;17.30;99.90
19007;DHT22;9636;47.382;8.480;2023-04-19T09:46:36;17.30;99.90
19007;DHT22;9636;47.382;8.480;2023-04-19T09:49:17;17.40;99.90
19007;DHT22;9636;47.382;8.480;2023-04-19T09:51:47;17.40;99.90
19007;DHT22;9636;47.382;8.480;2023-04-19T09:54:15;17.40;99.90
19007;DHT22;9636;47.382;8.480;2023-04-19T09:56:42;17.50;99.90
19007;DHT22;9636;47.382;8.480;2023-04-19T09:59:10;17.50;99.90
19007;DHT22;9636;47.382;8.480;2023-04-19T10:01:41;17.50;99.90
19007;DHT22;9636;47.382;8.480;2023-04-19T10:04:09;17.50;99.90
19007;DHT22;9636;47.382;8.480;2023-04-19T10:06:37;17.60;99.90
19007;DHT22;9636;47.382;8.480;2023-04-19T10:09:06;17.60;99.90
19007;DHT22;9636;47.382;8.480;2023-04-19T10:11:36;17.70;99.90
19007;DHT22;9636;47.382;8.480;2023-04-19T10:14:05;17.70;99.90
19007;DHT22;9636;47.382;8.480;2023-04-19T10:16:33;17.60;99.90
19007;DHT22;9636;47.382;8.480;2023-04-19T10:19:02;17.70;99.90
19007;DHT22;9636;47.382;8.480;2023-04-19T10:21:29;17.70;99.90
19007;DHT22;9636;47.382;8.480;2023-04-19T10:23:58;17.80;99.90
19007;DHT22;9636;47.382;8.480;2023-04-19T10:26:26;17.80;99.90
19007;DHT22;9636;47.382;8.480;2023-04-19T10:28:54;17.80;99.90
19007;DHT22;9636;47.382;8.480;2023-04-19T10:31:22;17.80;99.90
19007;DHT22;9636;47.382;8.480;2023-04-19T10:33:51;17.90;99.90
19007;DHT22;9636;47.382;8.480;2023-04-19T10:36:20;17.90;99.90
19007;DHT22;9636;47.382;8.480;2023-04-19T10:38:48;18.00;99.90
19007;DHT22;9636;47.382;8.480;2023-04-19T10:41:17;18.00;99.90
19007;DHT22;9636;47.382;8.480;2023-04-19T10:44:07;18.10;99.90
19007;DHT22;9636;47.382;8.480;2023-04-19T10:46:38;18.10;99.90
19007;DHT22;9636;47.382;8.480;2023-04-19T10:49:06;18.20;99.90
19007;DHT22;9636;47.382;8.480;2023-04-19T10:51:35;18.20;99.90
19007;DHT22;9636;47.382;8.480;2023-04-19T10:54:03;18.20;99.90
19007;DHT22;9636;47.382;8.480;2023-04-19T10:57:01;18.20;99.90
19007;DHT22;9636;47.382;8.480;2023-04-19T10:59:31;18.20;99.90
19007;DHT22;9636;47.382;8.480;2023-04-19T11:01:59;18.20;99.90
19007;DHT22;9636;47.382;8.480;2023-04-19T11:04:58;18.30;99.90
19007;DHT22;9636;47.382;8.480;2023-04-19T11:07:26;18.30;99.90
19007;DHT22;9636;47.382;8.480;2023-04-19T11:09:53;18.30;99.90
19007;DHT22;9636;47.382;8.480;2023-04-19T11:12:21;18.30;99.90
19007;DHT22;9636;47.382;8.480;2023-04-19T11:14:51;18.40;99.90
19007;DHT22;9636;47.382;8.480;2023-04-19T11:17:20;18.40;99.90
19007;DHT22;9636;47.382;8.480;2023-04-19T11:19:53;18.40;99.90
19007;DHT22;9636;47.382;8.480;2023-04-19T11:22:24;18.40;99.90
19007;DHT22;9636;47.382;8.480;2023-04-19T11:24:51;18.50;99.90
19007;DHT22;9636;47.382;8.480;2023-04-19T11:27:18;18.50;99.90
19007;DHT22;9636;47.382;8.480;2023-04-19T11:29:45;18.50;99.90
19007;DHT22;9636;47.382;8.480;2023-04-19T11:32:13;18.60;99.90
19007;DHT22;9636;47.382;8.480;2023-04-19T11:34:40;18.60;99.90
19007;DHT22;9636;47.382;8.480;2023-04-19T11:37:09;18.60;99.90
19007;DHT22;9636;47.382;8.480;2023-04-19T11:39:44;18.60;99.90
19007;DHT22;9636;47.382;8.480;2023-04-19T11:42:16;18.70;99.90
19007;DHT22;9636;47.382;8.480;2023-04-19T11:44:48;18.80;99.90
19007;DHT22;9636;47.382;8.480;2023-04-19T11:47:16;18.70;99.90
19007;DHT22;9636;47.382;8.480;2023-04-19T11:49:43;18.80;99.90
19007;DHT22;9636;47.382;8.480;2023-04-19T11:52:10;18.70;99.90
19007;DHT22;9636;47.382;8.480;2023-04-19T11:54:37;18.80;99.90
19007;DHT22;9636;47.382;8.480;2023-04-19T11:57:06;18.80;99.90
19007;DHT22;9636;47.382;8.480;2023-04-19T11:59:34;18.80;99.90
19007;DHT22;9636;47.382;8.480;2023-04-19T12:02:05;18.80;99.90
19007;DHT22;9636;47.382;8.480;2023-04-19T12:04:34;18.90;99.90
19007;DHT22;9636;47.382;8.480;2023-04-19T12:07:02;18.90;99.90
19007;DHT22;9636;47.382;8.480;2023-04-19T12:09:31;19.00;99.90
19007;DHT22;9636;47.382;8.480;2023-04-19T12:11:58;19.00;99.90
19007;DHT22;9636;47.382;8.480;2023-04-19T12:14:25;19.10;99.90
19007;DHT22;9636;47.382;8.480;2023-04-19T12:17:05;19.10;99.90
19007;DHT22;9636;47.382;8.480;2023-04-19T12:19:35;19.10;99.90
19007;DHT22;9636;47.382;8.480;2023-04-19T12:22:13;19.20;99.90
19007;DHT22;9636;47.382;8.480;2023-04-19T12:24:40;19.20;99.90
19007;DHT22;9636;47.382;8.480;2023-04-19T12:27:08;19.20;99.90
19007;DHT22;9636;47.382;8.480;2023-04-19T12:29:36;19.20;99.90
19007;DHT22;9636;47.382;8.480;2023-04-19T12:32:03;19.30;99.90
19007;DHT22;9636;47.382;8.480;2023-04-19T12:34:30;19.30;99.90
19007;DHT22;9636;47.382;8.480;2023-04-19T12:36:58;19.30;99.90
19007;DHT22;9636;47.382;8.480;2023-04-19T12:39:25;19.30;99.90
19007;DHT22;9636;47.382;8.480;2023-04-19T12:41:53;19.30;99.90
19007;DHT22;9636;47.382;8.480;2023-04-19T12:44:20;19.30;99.90
19007;DHT22;9636;47.382;8.480;2023-04-19T12:46:46;19.30;99.90
19007;DHT22;9636;47.382;8.480;2023-04-19T12:49:13;19.30;99.90
19007;DHT22;9636;47.382;8.480;2023-04-19T12:51:40;19.30;99.90
19007;DHT22;9636;47.382;8.480;2023-04-19T12:54:09;19.30;99.90
19007;DHT22;9636;47.382;8.480;2023-04-19T12:56:36;19.30;99.90
19007;DHT22;9636;47.382;8.480;2023-04-19T12:59:02;19.40;99.90
19007;DHT22;9636;47.382;8.480;2023-04-19T13:01:31;19.40;99.90
19007;DHT22;9636;47.382;8.480;2023-04-19T13:03:58;19.40;99.90
19007;DHT22;9636;47.382;8.480;2023-04-19T13:06:25;19.40;99.90
19007;DHT22;9636;47.382;8.480;2023-04-19T13:08:52;19.50;99.90
19007;DHT22;9636;47.382;8.480;2023-04-19T13:11:20;19.50;99.90
19007;DHT22;9636;47.382;8.480;2023-04-19T13:13:49;19.60;99.90
19007;DHT22;9636;47.382;8.480;2023-04-19T13:16:17;19.60;99.90
19007;DHT22;9636;47.382;8.480;2023-04-19T13:18:44;19.60;99.90
19007;DHT22;9636;47.382;8.480;2023-04-19T13:21:11;19.60;99.90
19007;DHT22;9636;47.382;8.480;2023-04-19T13:23:38;19.70;99.90
19007;DHT22;9636;47.382;8.480;2023-04-19T13:26:05;19.70;99.90
19007;DHT22;9636;47.382;8.480;2023-04-19T13:28:34;19.70;99.90
19007;DHT22;9636;47.382;8.480;2023-04-19T13:31:04;19.70;99.90
19007;DHT22;9636;47.382;8.480;2023-04-19T13:33:31;19.80;99.90
19007;DHT22;9636;47.382;8.480;2023-04-19T13:35:58;19.80;99.90
19007;DHT22;9636;47.382;8.480;2023-04-19T13:38:25;19.80;99.90
19007;DHT22;9636;47.382;8.480;2023-04-19T13:40:52;19.90;99.90
19007;DHT22;9636;47.382;8.480;2023-04-19T13:43:18;19.90;99.90
19007;DHT22;9636;47.382;8.480;2023-04-19T13:45:47;19.90;99.90
19007;DHT22;9636;47.382;8.480;2023-04-19T13:48:13;19.90;99.90
19007;DHT22;9636;47.382;8.480;2023-04-19T13:50:40;20.00;99.90
19007;DHT22;9636;47.382;8.480;2023-04-19T13:53:07;20.00;99.90
19007;DHT22;9636;47.382;8.480;2023-04-19T13:55:34;20.00;99.90
19007;DHT22;9636;47.382;8.480;2023-04-19T13:58:00;20.00;99.90
19007;DHT22;9636;47.382;8.480;2023-04-19T14:00:29;20.10;99.90
19007;DHT22;9636;47.382;8.480;2023-04-19T14:02:57;20.10;99.90
19007;DHT22;9636;47.382;8.480;2023-04-19T14:05:24;20.10;99.90
19007;DHT22;9636;47.382;8.480;2023-04-19T14:07:51;20.10;99.90
19007;DHT22;9636;47.382;8.480;2023-04-19T14:10:18;20.10;99.90
19007;DHT22;9636;47.382;8.480;2023-04-19T14:12:45;20.20;99.90
19007;DHT22;9636;47.382;8.480;2023-04-19T14:15:13;20.20;99.90
19007;DHT22;9636;47.382;8.480;2023-04-19T14:17:40;20.30;99.90
19007;DHT22;9636;47.382;8.480;2023-04-19T14:20:09;20.30;99.90
19007;DHT22;9636;47.382;8.480;2023-04-19T14:22:37;20.30;99.90
19007;DHT22;9636;47.382;8.480;2023-04-19T14:25:04;20.40;99.90
19007;DHT22;9636;47.382;8.480;2023-04-19T14:27:31;20.40;99.90
19007;DHT22;9636;47.382;8.480;2023-04-19T14:29:58;20.40;99.90
19007;DHT22;9636;47.382;8.480;2023-04-19T14:32:25;20.40;99.90
19007;DHT22;9636;47.382;8.480;2023-04-19T14:34:53;20.50;99.90
19007;DHT22;9636;47.382;8.480;2023-04-19T14:37:22;20.50;99.90
19007;DHT22;9636;47.382;8.480;2023-04-19T14:39:49;20.50;99.90
19007;DHT22;9636;47.382;8.480;2023-04-19T14:42:16;20.60;99.90
19007;DHT22;9636;47.382;8.480;2023-04-19T14:44:43;20.60;99.90
19007;DHT22;9636;47.382;8.480;2023-04-19T14:47:10;20.70;99.90
19007;DHT22;9636;47.382;8.480;2023-04-19T14:49:37;20.70;99.90
19007;DHT22;9636;47.382;8.480;2023-04-19T14:52:04;20.70;99.90
19007;DHT22;9636;47.382;8.480;2023-04-19T14:54:32;20.70;99.90
19007;DHT22;9636;47.382;8.480;2023-04-19T14:56:59;20.70;99.90
19007;DHT22;9636;47.382;8.480;2023-04-19T14:59:26;20.70;99.90
19007;DHT22;9636;47.382;8.480;2023-04-19T15:01:53;20.70;99.90
19007;DHT22;9636;47.382;8.480;2023-04-19T15:04:20;20.70;99.90
19007;DHT22;9636;47.382;8.480;2023-04-19T15:06:47;20.70;99.90
19007;DHT22;9636;47.382;8.480;2023-04-19T15:09:14;20.70;99.90
19007;DHT22;9636;47.382;8.480;2023-04-19T15:11:43;20.70;99.90
19007;DHT22;9636;47.382;8.480;2023-04-19T15:14:10;20.70;99.90
19007;DHT22;9636;47.382;8.480;2023-04-19T15:16:37;20.70;99.90
19007;DHT22;9636;47.382;8.480;2023-04-19T15:19:03;20.70;99.90
19007;DHT22;9636;47.382;8.480;2023-04-19T15:21:31;20.70;99.90
19007;DHT22;9636;47.382;8.480;2023-04-19T15:23:58;20.70;99.90
19007;DHT22;9636;47.382;8.480;2023-04-19T15:26:25;20.80;99.90
19007;DHT22;9636;47.382;8.480;2023-04-19T15:28:54;20.70;99.90
19007;DHT22;9636;47.382;8.480;2023-04-19T15:31:22;20.80;99.90
19007;DHT22;9636;47.382;8.480;2023-04-19T15:33:50;20.80;99.90
19007;DHT22;9636;47.382;8.480;2023-04-19T15:36:17;20.80;99.90
19007;DHT22;9636;47.382;8.480;2023-04-19T15:38:44;20.80;99.90
19007;DHT22;9636;47.382;8.480;2023-04-19T15:41:11;20.80;99.90
19007;DHT22;9636;47.382;8.480;2023-04-19T15:43:37;20.80;99.90
19007;DHT22;9636;47.382;8.480;2023-04-19T15:46:09;20.90;99.90
19007;DHT22;9636;47.382;8.480;2023-04-19T15:48:36;20.90;99.90